sensor_id;sensor_type;location;lat;lon;timestamp;temperature;humidity
17066;DHT22;23120;52.336;21.182;2022-09-23T00:01:53;6.70;90.20
17066;DHT22;23120;52.336;21.182;2022-09-23T00:04:20;6.70;90.20
17066;DHT22;23120;52.336;21.182;2022-09-23T00:06:47;6.60;90.10
17066;DHT22;23120;52.336;21.182;2022-09-23T00:09:15;6.60;90.10
17066;DHT22;23120;52.336;21.182;2022-09-23T00:11:42;6.60;90.20
17066;DHT22;23120;52.336;21.182;2022-09-23T00:14:08;6.60;90.10
17066;DHT22;23120;52.336;21.182;2022-09-23T00:16:36;6.50;90.20
17066;DHT22;23120;52.336;21.182;2022-09-23T00:19:04;6.50;90.10
17066;DHT22;23120;52.336;21.182;2022-09-23T00:21:31;6.40;90.10
17066;DHT22;23120;52.336;21.182;2022-09-23T00:23:58;6.40;90.10
17066;DHT22;23120;52.336;21.182;2022-09-23T00:26:26;6.40;90.20
17066;DHT22;23120;52.336;21.182;2022-09-23T00:28:53;6.40;90.20
17066;DHT22;23120;52.336;21.182;2022-09-23T00:31:22;6.40;90.40
17066;DHT22;23120;52.336;21.182;2022-09-23T00:33:52;6.30;90.20
17066;DHT22;23120;52.336;21.182;2022-09-23T00:36:19;6.30;90.20
17066;DHT22;23120;52.336;21.182;2022-09-23T00:38:46;6.30;90.30
17066;DHT22;23120;52.336;21.182;2022-09-23T00:41:16;6.20;90.30
17066;DHT22;23120;52.336;21.182;2022-09-23T00:43:46;6.20;90.30
17066;DHT22;23120;52.336;21.182;2022-09-23T00:46:17;6.20;90.30
17066;DHT22;23120;52.336;21.182;2022-09-23T00:48:46;6.20;90.30
17066;DHT22;23120;52.336;21.182;2022-09-23T00:51:18;6.20;90.30
17066;DHT22;23120;52.336;21.182;2022-09-23T00:53:47;6.10;90.30
17066;DHT22;23120;52.336;21.182;2022-09-23T00:56:16;6.20;90.40
17066;DHT22;23120;52.336;21.182;2022-09-23T00:58:45;6.10;90.40
17066;DHT22;23120;52.336;21.182;2022-09-23T01:01:13;6.10;90.50
17066;DHT22;23120;52.336;21.182;2022-09-23T01:03:41;6.10;90.50
17066;DHT22;23120;52.336;21.182;2022-09-23T01:06:10;6.10;90.50
17066;DHT22;23120;52.336;21.182;2022-09-23T01:08:37;6.10;90.60
17066;DHT22;23120;52.336;21.182;2022-09-23T01:11:13;6.10;91.00
17066;DHT22;23120;52.336;21.182;2022-09-23T01:13:51;6.10;90.70
17066;DHT22;23120;52.336;21.182;2022-09-23T01:16:24;6.10;90.80
17066;DHT22;23120;52.336;21.182;2022-09-23T01:18:57;6.10;90.80
17066;DHT22;23120;52.336;21.182;2022-09-23T01:21:37;6.10;90.80
17066;DHT22;23120;52.336;21.182;2022-09-23T01:24:45;6.10;90.80
17066;DHT22;23120;52.336;21.182;2022-09-23T01:27:30;6.10;90.80
17066;DHT22;23120;52.336;21.182;2022-09-23T01:33:05;6.20;90.80
17066;DHT22;23120;52.336;21.182;2022-09-23T01:35:59;6.10;90.80
17066;DHT22;23120;52.336;21.182;2022-09-23T01:38:36;6.20;90.90
17066;DHT22;23120;52.336;21.182;2022-09-23T01:41:24;6.20;90.90
17066;DHT22;23120;52.336;21.182;2022-09-23T01:43:58;6.20;91.10
17066;DHT22;23120;52.336;21.182;2022-09-23T01:46:31;6.20;90.90
17066;DHT22;23120;52.336;21.182;2022-09-23T01:49:06;6.30;90.90
17066;DHT22;23120;52.336;21.182;2022-09-23T01:51:37;6.30;90.90
17066;DHT22;23120;52.336;21.182;2022-09-23T01:54:08;6.30;91.00
17066;DHT22;23120;52.336;21.182;2022-09-23T01:56:39;6.30;90.90
17066;DHT22;23120;52.336;21.182;2022-09-23T01:59:11;6.40;91.20
17066;DHT22;23120;52.336;21.182;2022-09-23T02:01:44;6.40;91.20
17066;DHT22;23120;52.336;21.182;2022-09-23T02:04:17;6.40;91.20
17066;DHT22;23120;52.336;21.182;2022-09-23T02:06:49;6.40;91.20
17066;DHT22;23120;52.336;21.182;2022-09-23T02:09:20;6.40;91.40
17066;DHT22;23120;52.336;21.182;2022-09-23T02:11:51;6.50;91.30
17066;DHT22;23120;52.336;21.182;2022-09-23T02:14:21;6.50;91.30
17066;DHT22;23120;52.336;21.182;2022-09-23T02:16:50;6.50;91.30
17066;DHT22;23120;52.336;21.182;2022-09-23T02:19:25;6.50;91.20
17066;DHT22;23120;52.336;21.182;2022-09-23T02:21:59;6.50;91.10
17066;DHT22;23120;52.336;21.182;2022-09-23T02:24:29;6.50;91.20
17066;DHT22;23120;52.336;21.182;2022-09-23T02:27:00;6.50;91.30
17066;DHT22;23120;52.336;21.182;2022-09-23T02:29:36;6.60;91.30
17066;DHT22;23120;52.336;21.182;2022-09-23T02:32:10;6.50;91.20
17066;DHT22;23120;52.336;21.182;2022-09-23T02:34:45;6.50;91.20
17066;DHT22;23120;52.336;21.182;2022-09-23T02:37:22;6.50;91.20
17066;DHT22;23120;52.336;21.182;2022-09-23T02:39:56;6.50;91.10
17066;DHT22;23120;52.336;21.182;2022-09-23T02:42:31;6.40;91.10
17066;DHT22;23120;52.336;21.182;2022-09-23T02:45:03;6.40;91.10
17066;DHT22;23120;52.336;21.182;2022-09-23T02:47:31;6.40;91.00
17066;DHT22;23120;52.336;21.182;2022-09-23T02:50:01;6.40;91.50
17066;DHT22;23120;52.336;21.182;2022-09-23T02:52:27;6.40;91.20
17066;DHT22;23120;52.336;21.182;2022-09-23T02:54:54;6.40;91.20
17066;DHT22;23120;52.336;21.182;2022-09-23T02:57:22;6.40;91.20
17066;DHT22;23120;52.336;21.182;2022-09-23T02:59:49;6.40;91.20
17066;DHT22;23120;52.336;21.182;2022-09-23T03:02:34;6.40;91.20
17066;DHT22;23120;52.336;21.182;2022-09-23T03:05:09;6.40;91.30
17066;DHT22;23120;52.336;21.182;2022-09-23T03:07:45;6.40;91.30
17066;DHT22;23120;52.336;21.182;2022-09-23T03:10:19;6.40;91.50
17066;DHT22;23120;52.336;21.182;2022-09-23T03:12:53;6.40;91.50
17066;DHT22;23120;52.336;21.182;2022-09-23T03:15:28;6.40;91.60
17066;DHT22;23120;52.336;21.182;2022-09-23T03:18:06;6.40;91.60
17066;DHT22;23120;52.336;21.182;2022-09-23T03:20:39;6.40;91.60
17066;DHT22;23120;52.336;21.182;2022-09-23T03:23:11;6.40;91.60
17066;DHT22;23120;52.336;21.182;2022-09-23T03:25:41;6.50;91.60
17066;DHT22;23120;52.336;21.182;2022-09-23T03:28:10;6.50;91.60
17066;DHT22;23120;52.336;21.182;2022-09-23T03:30:39;6.50;91.60
17066;DHT22;23120;52.336;21.182;2022-09-23T03:33:10;6.40;91.50
17066;DHT22;23120;52.336;21.182;2022-09-23T03:35:46;6.40;91.60
17066;DHT22;23120;52.336;21.182;2022-09-23T03:38:34;6.50;91.60
17066;DHT22;23120;52.336;21.182;2022-09-23T03:41:04;6.40;91.60
17066;DHT22;23120;52.336;21.182;2022-09-23T03:43:34;6.40;91.50
17066;DHT22;23120;52.336;21.182;2022-09-23T03:46:01;6.40;91.50
17066;DHT22;23120;52.336;21.182;2022-09-23T03:48:28;6.40;91.50
17066;DHT22;23120;52.336;21.182;2022-09-23T03:50:56;6.40;91.60
17066;DHT22;23120;52.336;21.182;2022-09-23T03:53:23;6.30;91.50
17066;DHT22;23120;52.336;21.182;2022-09-23T03:55:50;6.40;91.50
17066;DHT22;23120;52.336;21.182;2022-09-23T03:58:16;6.30;91.50
17066;DHT22;23120;52.336;21.182;2022-09-23T04:00:43;6.30;91.50
17066;DHT22;23120;52.336;21.182;2022-09-23T04:03:11;6.30;91.50
17066;DHT22;23120;52.336;21.182;2022-09-23T04:05:38;6.30;91.50
17066;DHT22;23120;52.336;21.182;2022-09-23T04:08:07;6.30;91.50
17066;DHT22;23120;52.336;21.182;2022-09-23T04:10:34;6.20;91.40
17066;DHT22;23120;52.336;21.182;2022-09-23T04:13:00;6.20;91.40
17066;DHT22;23120;52.336;21.182;2022-09-23T04:15:27;6.20;91.40
17066;DHT22;23120;52.336;21.182;2022-09-23T04:17:54;6.20;91.40
17066;DHT22;23120;52.336;21.182;2022-09-23T04:20:21;6.10;91.30
17066;DHT22;23120;52.336;21.182;2022-09-23T04:22:48;6.10;91.30
17066;DHT22;23120;52.336;21.182;2022-09-23T04:25:17;6.10;91.20
17066;DHT22;23120;52.336;21.182;2022-09-23T04:27:44;6.10;91.30
17066;DHT22;23120;52.336;21.182;2022-09-23T04:30:12;6.00;91.20
17066;DHT22;23120;52.336;21.182;2022-09-23T04:32:39;6.00;91.30
17066;DHT22;23120;52.336;21.182;2022-09-23T04:35:06;6.00;91.30
17066;DHT22;23120;52.336;21.182;2022-09-23T04:37:33;6.00;91.20
17066;DHT22;23120;52.336;21.182;2022-09-23T04:40:01;6.00;91.20
17066;DHT22;23120;52.336;21.182;2022-09-23T04:42:30;5.90;91.20
17066;DHT22;23120;52.336;21.182;2022-09-23T04:44:57;5.90;91.20
17066;DHT22;23120;52.336;21.182;2022-09-23T04:47:24;5.80;91.20
17066;DHT22;23120;52.336;21.182;2022-09-23T04:49:51;5.80;91.10
17066;DHT22;23120;52.336;21.182;2022-09-23T04:52:18;5.80;91.30
17066;DHT22;23120;52.336;21.182;2022-09-23T04:54:45;5.80;91.30
17066;DHT22;23120;52.336;21.182;2022-09-23T04:57:12;5.80;91.30
17066;DHT22;23120;52.336;21.182;2022-09-23T04:59:41;5.80;91.30
17066;DHT22;23120;52.336;21.182;2022-09-23T05:02:09;5.70;91.60
17066;DHT22;23120;52.336;21.182;2022-09-23T05:04:37;5.70;91.40
17066;DHT22;23120;52.336;21.182;2022-09-23T05:07:04;5.70;91.30
17066;DHT22;23120;52.336;21.182;2022-09-23T05:09:31;5.70;91.30
17066;DHT22;23120;52.336;21.182;2022-09-23T05:11:58;5.70;91.30
17066;DHT22;23120;52.336;21.182;2022-09-23T05:14:25;5.70;91.30
17066;DHT22;23120;52.336;21.182;2022-09-23T05:16:53;5.70;91.40
17066;DHT22;23120;52.336;21.182;2022-09-23T05:19:20;5.70;91.40
17066;DHT22;23120;52.336;21.182;2022-09-23T05:21:48;5.70;91.50
17066;DHT22;23120;52.336;21.182;2022-09-23T05:24:15;5.60;91.50
17066;DHT22;23120;52.336;21.182;2022-09-23T05:26:42;5.60;91.50
17066;DHT22;23120;52.336;21.182;2022-09-23T05:29:09;5.60;91.60
17066;DHT22;23120;52.336;21.182;2022-09-23T05:31:36;5.60;91.70
17066;DHT22;23120;52.336;21.182;2022-09-23T05:34:05;5.70;91.80
17066;DHT22;23120;52.336;21.182;2022-09-23T05:36:34;5.70;91.70
17066;DHT22;23120;52.336;21.182;2022-09-23T05:39:02;5.70;91.90
17066;DHT22;23120;52.336;21.182;2022-09-23T05:41:30;5.70;92.00
17066;DHT22;23120;52.336;21.182;2022-09-23T05:43:58;5.70;92.10
17066;DHT22;23120;52.336;21.182;2022-09-23T05:46:26;5.70;92.20
17066;DHT22;23120;52.336;21.182;2022-09-23T05:48:55;5.80;92.30
17066;DHT22;23120;52.336;21.182;2022-09-23T05:51:25;5.80;92.50
17066;DHT22;23120;52.336;21.182;2022-09-23T05:53:53;5.80;92.50
17066;DHT22;23120;52.336;21.182;2022-09-23T05:56:23;5.80;92.60
17066;DHT22;23120;52.336;21.182;2022-09-23T05:58:52;5.90;92.70
17066;DHT22;23120;52.336;21.182;2022-09-23T06:01:21;5.90;92.90
17066;DHT22;23120;52.336;21.182;2022-09-23T06:03:50;6.00;92.90
17066;DHT22;23120;52.336;21.182;2022-09-23T06:06:19;6.00;93.10
17066;DHT22;23120;52.336;21.182;2022-09-23T06:08:48;6.10;93.30
17066;DHT22;23120;52.336;21.182;2022-09-23T06:11:16;6.20;93.30
17066;DHT22;23120;52.336;21.182;2022-09-23T06:13:43;6.20;93.50
17066;DHT22;23120;52.336;21.182;2022-09-23T06:16:11;6.30;93.50
17066;DHT22;23120;52.336;21.182;2022-09-23T06:18:40;6.30;93.90
17066;DHT22;23120;52.336;21.182;2022-09-23T06:21:11;6.40;94.00
17066;DHT22;23120;52.336;21.182;2022-09-23T06:23:38;6.50;94.20
17066;DHT22;23120;52.336;21.182;2022-09-23T06:26:09;6.50;94.20
17066;DHT22;23120;52.336;21.182;2022-09-23T06:28:38;6.60;94.40
17066;DHT22;23120;52.336;21.182;2022-09-23T06:31:08;6.60;94.50
17066;DHT22;23120;52.336;21.182;2022-09-23T06:33:36;6.80;94.70
17066;DHT22;23120;52.336;21.182;2022-09-23T06:36:06;6.90;94.80
17066;DHT22;23120;52.336;21.182;2022-09-23T06:38:33;7.00;94.90
17066;DHT22;23120;52.336;21.182;2022-09-23T06:41:00;7.10;95.10
17066;DHT22;23120;52.336;21.182;2022-09-23T06:43:29;7.20;95.00
17066;DHT22;23120;52.336;21.182;2022-09-23T06:45:58;7.30;95.00
17066;DHT22;23120;52.336;21.182;2022-09-23T06:48:26;7.40;94.90
17066;DHT22;23120;52.336;21.182;2022-09-23T06:50:56;7.50;95.00
17066;DHT22;23120;52.336;21.182;2022-09-23T06:53:24;7.60;94.90
17066;DHT22;23120;52.336;21.182;2022-09-23T06:55:57;7.70;95.00
17066;DHT22;23120;52.336;21.182;2022-09-23T06:58:25;7.80;95.00
17066;DHT22;23120;52.336;21.182;2022-09-23T07:00:59;7.90;95.10
17066;DHT22;23120;52.336;21.182;2022-09-23T07:03:27;8.00;95.20
17066;DHT22;23120;52.336;21.182;2022-09-23T07:05:54;8.00;95.00
17066;DHT22;23120;52.336;21.182;2022-09-23T07:08:21;8.10;95.10
17066;DHT22;23120;52.336;21.182;2022-09-23T07:10:53;8.20;95.00
17066;DHT22;23120;52.336;21.182;2022-09-23T07:13:20;8.30;95.10
17066;DHT22;23120;52.336;21.182;2022-09-23T07:15:50;8.40;95.10
17066;DHT22;23120;52.336;21.182;2022-09-23T07:18:20;8.50;95.00
17066;DHT22;23120;52.336;21.182;2022-09-23T07:20:48;8.50;94.90
17066;DHT22;23120;52.336;21.182;2022-09-23T07:23:15;8.60;94.80
17066;DHT22;23120;52.336;21.182;2022-09-23T07:25:43;8.70;94.70
17066;DHT22;23120;52.336;21.182;2022-09-23T07:28:11;8.80;94.60
17066;DHT22;23120;52.336;21.182;2022-09-23T07:30:39;8.90;94.50
17066;DHT22;23120;52.336;21.182;2022-09-23T07:33:06;9.00;94.30
17066;DHT22;23120;52.336;21.182;2022-09-23T07:35:38;9.10;94.40
17066;DHT22;23120;52.336;21.182;2022-09-23T07:38:06;9.20;94.20
17066;DHT22;23120;52.336;21.182;2022-09-23T07:40:34;9.30;94.10
17066;DHT22;23120;52.336;21.182;2022-09-23T07:43:01;9.40;94.00
17066;DHT22;23120;52.336;21.182;2022-09-23T07:45:30;9.50;93.90
17066;DHT22;23120;52.336;21.182;2022-09-23T07:47:59;9.60;93.90
17066;DHT22;23120;52.336;21.182;2022-09-23T07:50:26;9.70;93.80
17066;DHT22;23120;52.336;21.182;2022-09-23T07:52:54;9.80;93.70
17066;DHT22;23120;52.336;21.182;2022-09-23T07:55:21;9.90;93.50
17066;DHT22;23120;52.336;21.182;2022-09-23T07:57:48;10.00;92.90
17066;DHT22;23120;52.336;21.182;2022-09-23T08:00:16;10.10;92.90
17066;DHT22;23120;52.336;21.182;2022-09-23T08:02:43;10.20;92.80
17066;DHT22;23120;52.336;21.182;2022-09-23T08:05:10;10.30;92.70
17066;DHT22;23120;52.336;21.182;2022-09-23T08:07:37;10.40;92.70
17066;DHT22;23120;52.336;21.182;2022-09-23T08:10:06;10.50;92.70
17066;DHT22;23120;52.336;21.182;2022-09-23T08:12:34;10.60;92.50
17066;DHT22;23120;52.336;21.182;2022-09-23T08:15:01;10.70;92.30
17066;DHT22;23120;52.336;21.182;2022-09-23T08:17:29;10.80;92.30
17066;DHT22;23120;52.336;21.182;2022-09-23T08:19:56;10.90;92.10
17066;DHT22;23120;52.336;21.182;2022-09-23T08:22:23;11.00;90.90
17066;DHT22;23120;52.336;21.182;2022-09-23T08:24:49;11.10;91.30
17066;DHT22;23120;52.336;21.182;2022-09-23T08:27:18;11.20;91.30
17066;DHT22;23120;52.336;21.182;2022-09-23T08:29:45;11.40;91.10
17066;DHT22;23120;52.336;21.182;2022-09-23T08:32:12;11.50;90.90
17066;DHT22;23120;52.336;21.182;2022-09-23T08:34:39;11.60;90.30
17066;DHT22;23120;52.336;21.182;2022-09-23T08:37:08;11.70;89.40
17066;DHT22;23120;52.336;21.182;2022-09-23T08:39:35;11.80;90.30
17066;DHT22;23120;52.336;21.182;2022-09-23T08:42:10;11.90;90.40
17066;DHT22;23120;52.336;21.182;2022-09-23T08:44:46;12.00;90.40
17066;DHT22;23120;52.336;21.182;2022-09-23T08:47:19;12.10;90.40
17066;DHT22;23120;52.336;21.182;2022-09-23T08:49:54;12.20;90.00
17066;DHT22;23120;52.336;21.182;2022-09-23T08:52:28;12.30;90.10
17066;DHT22;23120;52.336;21.182;2022-09-23T08:54:57;12.40;90.40
17066;DHT22;23120;52.336;21.182;2022-09-23T08:57:33;12.40;90.10
17066;DHT22;23120;52.336;21.182;2022-09-23T09:00:11;12.50;90.00
17066;DHT22;23120;52.336;21.182;2022-09-23T09:02:39;12.50;89.40
17066;DHT22;23120;52.336;21.182;2022-09-23T09:05:09;12.60;89.50
17066;DHT22;23120;52.336;21.182;2022-09-23T09:07:39;12.80;87.70
17066;DHT22;23120;52.336;21.182;2022-09-23T09:10:15;12.80;88.70
17066;DHT22;23120;52.336;21.182;2022-09-23T09:12:44;13.00;84.80
17066;DHT22;23120;52.336;21.182;2022-09-23T09:15:15;13.00;84.10
17066;DHT22;23120;52.336;21.182;2022-09-23T09:17:50;13.00;81.90
17066;DHT22;23120;52.336;21.182;2022-09-23T09:20:27;13.00;85.70
17066;DHT22;23120;52.336;21.182;2022-09-23T09:22:58;13.10;85.80
17066;DHT22;23120;52.336;21.182;2022-09-23T09:25:42;13.20;85.90
17066;DHT22;23120;52.336;21.182;2022-09-23T09:28:13;13.30;86.40
17066;DHT22;23120;52.336;21.182;2022-09-23T09:30:43;13.30;86.70
17066;DHT22;23120;52.336;21.182;2022-09-23T09:33:14;13.40;86.80
17066;DHT22;23120;52.336;21.182;2022-09-23T09:35:57;13.50;84.20
17066;DHT22;23120;52.336;21.182;2022-09-23T09:38:25;13.50;84.10
17066;DHT22;23120;52.336;21.182;2022-09-23T09:40:54;13.50;85.10
17066;DHT22;23120;52.336;21.182;2022-09-23T09:43:26;13.60;85.50
17066;DHT22;23120;52.336;21.182;2022-09-23T09:46:09;13.80;82.80
17066;DHT22;23120;52.336;21.182;2022-09-23T09:48:48;13.80;84.50
17066;DHT22;23120;52.336;21.182;2022-09-23T09:51:19;13.90;82.90
17066;DHT22;23120;52.336;21.182;2022-09-23T09:53:47;14.00;83.00
17066;DHT22;23120;52.336;21.182;2022-09-23T09:56:18;14.00;83.00
17066;DHT22;23120;52.336;21.182;2022-09-23T09:58:50;14.10;83.70
17066;DHT22;23120;52.336;21.182;2022-09-23T10:01:20;14.30;83.90
17066;DHT22;23120;52.336;21.182;2022-09-23T10:03:49;14.50;83.60
17066;DHT22;23120;52.336;21.182;2022-09-23T10:06:19;14.60;83.60
17066;DHT22;23120;52.336;21.182;2022-09-23T10:09:02;14.70;83.70
17066;DHT22;23120;52.336;21.182;2022-09-23T10:11:30;14.70;83.90
17066;DHT22;23120;52.336;21.182;2022-09-23T10:14:04;14.80;84.10
17066;DHT22;23120;52.336;21.182;2022-09-23T10:16:34;14.90;83.50
17066;DHT22;23120;52.336;21.182;2022-09-23T10:19:02;15.00;83.00
17066;DHT22;23120;52.336;21.182;2022-09-23T10:21:36;15.10;83.90
17066;DHT22;23120;52.336;21.182;2022-09-23T10:24:07;15.20;83.70
17066;DHT22;23120;52.336;21.182;2022-09-23T10:26:51;15.20;83.80
17066;DHT22;23120;52.336;21.182;2022-09-23T10:29:22;15.20;83.70
17066;DHT22;23120;52.336;21.182;2022-09-23T10:32:13;15.20;83.50
17066;DHT22;23120;52.336;21.182;2022-09-23T10:34:44;15.30;83.30
17066;DHT22;23120;52.336;21.182;2022-09-23T10:37:15;15.40;82.80
17066;DHT22;23120;52.336;21.182;2022-09-23T10:39:44;15.20;79.80
17066;DHT22;23120;52.336;21.182;2022-09-23T10:42:39;15.20;81.00
17066;DHT22;23120;52.336;21.182;2022-09-23T10:45:31;15.20;79.40
17066;DHT22;23120;52.336;21.182;2022-09-23T10:48:22;15.20;78.80
17066;DHT22;23120;52.336;21.182;2022-09-23T10:50:57;15.30;79.30
17066;DHT22;23120;52.336;21.182;2022-09-23T10:53:30;15.40;79.10
17066;DHT22;23120;52.336;21.182;2022-09-23T10:56:15;15.50;80.30
17066;DHT22;23120;52.336;21.182;2022-09-23T10:59:21;15.60;81.10
17066;DHT22;23120;52.336;21.182;2022-09-23T11:02:29;15.60;81.20
17066;DHT22;23120;52.336;21.182;2022-09-23T11:05:18;15.50;80.50
17066;DHT22;23120;52.336;21.182;2022-09-23T11:07:56;15.60;81.20
17066;DHT22;23120;52.336;21.182;2022-09-23T11:10:49;15.60;81.30
17066;DHT22;23120;52.336;21.182;2022-09-23T11:16:40;15.60;79.20
17066;DHT22;23120;52.336;21.182;2022-09-23T11:19:24;15.60;79.70
17066;DHT22;23120;52.336;21.182;2022-09-23T11:22:18;15.60;79.20
17066;DHT22;23120;52.336;21.182;2022-09-23T11:25:05;15.50;79.00
17066;DHT22;23120;52.336;21.182;2022-09-23T11:27:44;15.50;79.10
17066;DHT22;23120;52.336;21.182;2022-09-23T11:30:15;15.70;79.30
17066;DHT22;23120;52.336;21.182;2022-09-23T11:32:55;15.70;77.80
17066;DHT22;23120;52.336;21.182;2022-09-23T11:35:30;15.90;78.30
17066;DHT22;23120;52.336;21.182;2022-09-23T11:38:06;16.00;79.10
17066;DHT22;23120;52.336;21.182;2022-09-23T11:40:35;16.10;79.70
17066;DHT22;23120;52.336;21.182;2022-09-23T11:43:06;16.20;79.80
17066;DHT22;23120;52.336;21.182;2022-09-23T11:45:43;16.30;78.60
17066;DHT22;23120;52.336;21.182;2022-09-23T11:48:15;16.40;78.90
17066;DHT22;23120;52.336;21.182;2022-09-23T11:50:46;16.40;80.20
17066;DHT22;23120;52.336;21.182;2022-09-23T11:53:22;16.50;79.90
17066;DHT22;23120;52.336;21.182;2022-09-23T11:55:59;16.50;79.10
17066;DHT22;23120;52.336;21.182;2022-09-23T11:58:30;16.50;79.20
17066;DHT22;23120;52.336;21.182;2022-09-23T12:01:02;16.60;77.50
17066;DHT22;23120;52.336;21.182;2022-09-23T12:03:39;16.60;76.40
17066;DHT22;23120;52.336;21.182;2022-09-23T12:06:14;16.60;77.90
17066;DHT22;23120;52.336;21.182;2022-09-23T12:08:44;16.60;77.90
17066;DHT22;23120;52.336;21.182;2022-09-23T12:11:23;16.60;78.10
17066;DHT22;23120;52.336;21.182;2022-09-23T12:13:55;16.80;77.30
17066;DHT22;23120;52.336;21.182;2022-09-23T12:16:43;16.90;76.20
17066;DHT22;23120;52.336;21.182;2022-09-23T12:19:26;17.00;75.20
17066;DHT22;23120;52.336;21.182;2022-09-23T12:22:12;17.10;75.20
17066;DHT22;23120;52.336;21.182;2022-09-23T12:24:53;17.20;73.20
17066;DHT22;23120;52.336;21.182;2022-09-23T12:27:31;17.20;74.50
17066;DHT22;23120;52.336;21.182;2022-09-23T12:30:03;17.30;75.10
17066;DHT22;23120;52.336;21.182;2022-09-23T12:32:30;17.30;74.70
17066;DHT22;23120;52.336;21.182;2022-09-23T12:34:58;17.30;76.00
17066;DHT22;23120;52.336;21.182;2022-09-23T12:37:28;17.30;75.20
17066;DHT22;23120;52.336;21.182;2022-09-23T12:40:04;17.30;75.20
17066;DHT22;23120;52.336;21.182;2022-09-23T12:42:32;17.40;75.50
17066;DHT22;23120;52.336;21.182;2022-09-23T12:45:32;17.40;75.60
17066;DHT22;23120;52.336;21.182;2022-09-23T12:48:01;17.40;70.90
17066;DHT22;23120;52.336;21.182;2022-09-23T12:50:50;17.40;74.50
17066;DHT22;23120;52.336;21.182;2022-09-23T12:53:51;17.40;74.90
17066;DHT22;23120;52.336;21.182;2022-09-23T12:56:23;17.40;75.60
17066;DHT22;23120;52.336;21.182;2022-09-23T12:58:58;17.50;75.20
17066;DHT22;23120;52.336;21.182;2022-09-23T13:01:26;17.60;75.80
17066;DHT22;23120;52.336;21.182;2022-09-23T13:03:55;17.60;75.80
17066;DHT22;23120;52.336;21.182;2022-09-23T13:06:41;17.60;75.80
17066;DHT22;23120;52.336;21.182;2022-09-23T13:09:14;17.70;74.70
17066;DHT22;23120;52.336;21.182;2022-09-23T13:11:44;17.80;74.70
17066;DHT22;23120;52.336;21.182;2022-09-23T13:14:17;17.70;73.80
17066;DHT22;23120;52.336;21.182;2022-09-23T13:16:46;17.80;73.20
17066;DHT22;23120;52.336;21.182;2022-09-23T13:19:42;17.90;72.80
17066;DHT22;23120;52.336;21.182;2022-09-23T13:22:11;17.90;73.70
17066;DHT22;23120;52.336;21.182;2022-09-23T13:24:45;17.90;74.90
17066;DHT22;23120;52.336;21.182;2022-09-23T13:27:26;18.00;74.10
17066;DHT22;23120;52.336;21.182;2022-09-23T13:29:59;18.00;73.80
17066;DHT22;23120;52.336;21.182;2022-09-23T13:32:30;18.10;74.50
17066;DHT22;23120;52.336;21.182;2022-09-23T13:35:02;18.10;74.00
17066;DHT22;23120;52.336;21.182;2022-09-23T13:37:37;18.20;73.30
17066;DHT22;23120;52.336;21.182;2022-09-23T13:40:15;18.20;72.30
17066;DHT22;23120;52.336;21.182;2022-09-23T13:42:47;18.30;72.40
17066;DHT22;23120;52.336;21.182;2022-09-23T13:45:16;18.30;72.80
17066;DHT22;23120;52.336;21.182;2022-09-23T13:47:46;18.30;71.20
17066;DHT22;23120;52.336;21.182;2022-09-23T13:50:17;18.30;70.20
17066;DHT22;23120;52.336;21.182;2022-09-23T13:52:45;18.40;69.40
17066;DHT22;23120;52.336;21.182;2022-09-23T13:55:24;18.40;70.60
17066;DHT22;23120;52.336;21.182;2022-09-23T13:57:58;18.40;71.00
17066;DHT22;23120;52.336;21.182;2022-09-23T14:00:26;18.40;70.60
17066;DHT22;23120;52.336;21.182;2022-09-23T14:02:53;18.40;68.20
17066;DHT22;23120;52.336;21.182;2022-09-23T14:05:22;18.40;68.00
17066;DHT22;23120;52.336;21.182;2022-09-23T14:07:51;18.40;69.40
17066;DHT22;23120;52.336;21.182;2022-09-23T14:10:21;18.40;69.40
17066;DHT22;23120;52.336;21.182;2022-09-23T14:12:50;18.40;69.70
17066;DHT22;23120;52.336;21.182;2022-09-23T14:15:19;18.40;70.10
17066;DHT22;23120;52.336;21.182;2022-09-23T14:17:48;18.30;67.20
17066;DHT22;23120;52.336;21.182;2022-09-23T14:20:20;18.30;67.20
17066;DHT22;23120;52.336;21.182;2022-09-23T14:22:47;18.20;66.80
17066;DHT22;23120;52.336;21.182;2022-09-23T14:25:28;18.30;67.10
17066;DHT22;23120;52.336;21.182;2022-09-23T14:27:55;18.30;68.20
17066;DHT22;23120;52.336;21.182;2022-09-23T14:30:24;18.30;68.00
17066;DHT22;23120;52.336;21.182;2022-09-23T14:32:51;18.30;67.20
17066;DHT22;23120;52.336;21.182;2022-09-23T14:35:20;18.20;66.30
17066;DHT22;23120;52.336;21.182;2022-09-23T14:37:51;18.20;66.90
17066;DHT22;23120;52.336;21.182;2022-09-23T14:40:47;18.00;60.20
17066;DHT22;23120;52.336;21.182;2022-09-23T14:43:16;17.80;63.00
17066;DHT22;23120;52.336;21.182;2022-09-23T14:45:50;18.00;61.60
17066;DHT22;23120;52.336;21.182;2022-09-23T14:48:22;18.20;62.20
17066;DHT22;23120;52.336;21.182;2022-09-23T14:50:53;18.30;61.60
17066;DHT22;23120;52.336;21.182;2022-09-23T14:53:34;18.40;60.90
17066;DHT22;23120;52.336;21.182;2022-09-23T14:56:26;18.50;61.10
17066;DHT22;23120;52.336;21.182;2022-09-23T14:58:54;18.50;62.00
17066;DHT22;23120;52.336;21.182;2022-09-23T15:01:33;18.60;61.10
17066;DHT22;23120;52.336;21.182;2022-09-23T15:04:13;18.60;60.00
17066;DHT22;23120;52.336;21.182;2022-09-23T15:06:47;18.60;61.30
17066;DHT22;23120;52.336;21.182;2022-09-23T15:09:19;18.60;59.90
17066;DHT22;23120;52.336;21.182;2022-09-23T15:11:51;18.50;59.80
17066;DHT22;23120;52.336;21.182;2022-09-23T15:14:18;18.40;59.70
17066;DHT22;23120;52.336;21.182;2022-09-23T15:16:47;18.30;60.10
17066;DHT22;23120;52.336;21.182;2022-09-23T15:19:17;18.30;60.00
17066;DHT22;23120;52.336;21.182;2022-09-23T15:21:46;18.20;61.30
17066;DHT22;23120;52.336;21.182;2022-09-23T15:24:35;18.10;62.20
17066;DHT22;23120;52.336;21.182;2022-09-23T15:27:09;18.00;64.10
17066;DHT22;23120;52.336;21.182;2022-09-23T15:29:37;17.90;64.90
17066;DHT22;23120;52.336;21.182;2022-09-23T15:32:06;17.80;64.70
17066;DHT22;23120;52.336;21.182;2022-09-23T15:34:33;17.60;66.40
17066;DHT22;23120;52.336;21.182;2022-09-23T15:37:01;17.50;66.80
17066;DHT22;23120;52.336;21.182;2022-09-23T15:39:28;17.40;67.20
17066;DHT22;23120;52.336;21.182;2022-09-23T15:41:58;17.30;67.00
17066;DHT22;23120;52.336;21.182;2022-09-23T15:44:27;16.60;67.70
17066;DHT22;23120;52.336;21.182;2022-09-23T15:46:56;16.30;69.90
17066;DHT22;23120;52.336;21.182;2022-09-23T15:49:31;16.00;69.50
17066;DHT22;23120;52.336;21.182;2022-09-23T15:51:59;15.60;69.90
17066;DHT22;23120;52.336;21.182;2022-09-23T15:54:27;15.20;70.90
17066;DHT22;23120;52.336;21.182;2022-09-23T15:56:54;15.40;72.10
17066;DHT22;23120;52.336;21.182;2022-09-23T15:59:21;15.60;71.90